Columbia — WDD6400 — position and weather

sailwx.info

Track history (hours):
 
Tides and Currents Weather Stations Pressure Air Temp Water Temp Dewpoint Dewpoint Depression Visibility Wind Speed Wind Dir Waves Ship Positions

Columbia

Owner: OSG Ship Management Inc., Tampa, FL. More information available from US FCC via Universal Licensing System and Coast Guard Vessel Documentation Center.

Last reported at 2018-May-25 13:26 UTC. Time now 2018-May-25 14:41 UTC.
Position N 26°18' W 079°45'.

Length 194 m; draft 5.9 m.

Type: Towing. MMSI: 367172440.

Date/timePositionNaut miles runAvg speedWind from/ knotsBaromVisibWave heightAir tempDewpointWater temp
2018-May-25 13:26N 26°18' W 079°45'712.8
2018-May-25 12:55N 26°12' W 079°46'613.3
2018-May-25 12:30N 26°06' W 079°48'713.4
2018-May-25 12:00N 25°60' W 079°49'713.4
2018-May-25 11:29N 25°53' W 079°51'713.5
2018-May-25 11:00N 25°46' W 079°53'713.5
2018-May-25 10:29N 25°40' W 079°54'613.4
2018-May-25 10:00N 25°33' W 079°56'713.2
2018-May-25 09:30N 25°27' W 079°59'  
2018-May-21 14:42N 29°33' W 094°54'2 8.0
2018-May-21 14:30N 29°34' W 094°55'4 8.0
2018-May-21 14:00N 29°37' W 094°58'4 7.9
2018-May-21 13:30N 29°41' W 094°59'  
2018-May-18 08:11N 29°44' W 095°17'0 0.0
2018-May-18 07:46N 29°44' W 095°17'0 0.0
2018-May-18 05:37N 29°44' W 095°17'0 0.0
2018-May-18 05:19N 29°44' W 095°17'9 0.2
2018-May-16 12:37N 29°45' W 095°06'0 0.0
2018-May-16 12:27N 29°45' W 095°06'0 0.0
2018-May-16 12:00N 29°45' W 095°06'0 0.0
2018-May-16 11:30N 29°45' W 095°06'0 0.0
2018-May-16 10:59N 29°45' W 095°06'0 0.0
2018-May-16 09:42N 29°45' W 095°06'0 0.0
2018-May-16 09:18N 29°45' W 095°06'0 0.0
2018-May-16 08:39N 29°45' W 095°06'0 0.0
2018-May-16 08:30N 29°45' W 095°06'0 0.0
2018-May-16 08:00N 29°45' W 095°06'0 0.0
2018-May-16 07:29N 29°45' W 095°06'0 0.0
2018-May-16 06:39N 29°45' W 095°06'0 0.0
2018-May-16 04:26N 29°45' W 095°06'0 0.0
2018-May-16 04:00N 29°45' W 095°06'  
Track history (hours):
 
Tides and Currents Weather Stations Pressure Air Temp Water Temp Dewpoint Dewpoint Depression Visibility Wind Speed Wind Dir Waves Ship Positions

Columbia

Owner: OSG Ship Management Inc., Tampa, FL. More information available from US FCC via Universal Licensing System and Coast Guard Vessel Documentation Center.

Last reported at 2018-May-25 13:26 UTC. Time now 2018-May-25 14:41 UTC.
Position N 26°18' W 079°45'.

Length 194 m; draft 5.9 m.

Type: Towing. MMSI: 367172440.

Date/timePositionNaut miles runAvg speedWind from/ knotsBaromVisibWave heightAir tempDewpointWater temp
2018-May-25 13:26N 26°18' W 079°45'712.8
2018-May-25 12:55N 26°12' W 079°46'613.3
2018-May-25 12:30N 26°06' W 079°48'713.4
2018-May-25 12:00N 25°60' W 079°49'713.4
2018-May-25 11:29N 25°53' W 079°51'713.5
2018-May-25 11:00N 25°46' W 079°53'713.5
2018-May-25 10:29N 25°40' W 079°54'613.4
2018-May-25 10:00N 25°33' W 079°56'713.2
2018-May-25 09:30N 25°27' W 079°59'  
2018-May-21 14:42N 29°33' W 094°54'2 8.0
2018-May-21 14:30N 29°34' W 094°55'4 8.0
2018-May-21 14:00N 29°37' W 094°58'4 7.9
2018-May-21 13:30N 29°41' W 094°59'  
2018-May-18 08:11N 29°44' W 095°17'0 0.0
2018-May-18 07:46N 29°44' W 095°17'0 0.0
2018-May-18 05:37N 29°44' W 095°17'0 0.0
2018-May-18 05:19N 29°44' W 095°17'9 0.2
2018-May-16 12:37N 29°45' W 095°06'0 0.0
2018-May-16 12:27N 29°45' W 095°06'0 0.0
2018-May-16 12:00N 29°45' W 095°06'0 0.0
2018-May-16 11:30N 29°45' W 095°06'0 0.0
2018-May-16 10:59N 29°45' W 095°06'0 0.0
2018-May-16 09:42N 29°45' W 095°06'0 0.0
2018-May-16 09:18N 29°45' W 095°06'0 0.0
2018-May-16 08:39N 29°45' W 095°06'0 0.0
2018-May-16 08:30N 29°45' W 095°06'0 0.0
2018-May-16 08:00N 29°45' W 095°06'0 0.0
2018-May-16 07:29N 29°45' W 095°06'0 0.0
2018-May-16 06:39N 29°45' W 095°06'0 0.0
2018-May-16 04:26N 29°45' W 095°06'0 0.0
2018-May-16 04:00N 29°45' W 095°06'  

Dump ship's entire track history